sensor_id;sensor_type;location;lat;lon;timestamp;temperature;humidity
2054;DHT22;1032;52.542;13.440;2023-07-30T00:02:06;20.00;99.90
2054;DHT22;1032;52.542;13.440;2023-07-30T00:04:33;19.90;99.90
2054;DHT22;1032;52.542;13.440;2023-07-30T00:06:59;19.90;99.90
2054;DHT22;1032;52.542;13.440;2023-07-30T00:09:26;20.20;99.90
2054;DHT22;1032;52.542;13.440;2023-07-30T00:11:52;19.90;99.90
2054;DHT22;1032;52.542;13.440;2023-07-30T00:14:20;19.90;99.90
2054;DHT22;1032;52.542;13.440;2023-07-30T00:16:47;19.90;99.90
2054;DHT22;1032;52.542;13.440;2023-07-30T00:19:13;19.90;99.90
2054;DHT22;1032;52.542;13.440;2023-07-30T00:21:40;19.90;99.90
2054;DHT22;1032;52.542;13.440;2023-07-30T00:24:11;19.70;99.90
2054;DHT22;1032;52.542;13.440;2023-07-30T00:26:38;19.70;99.90
2054;DHT22;1032;52.542;13.440;2023-07-30T00:29:04;19.70;99.90
2054;DHT22;1032;52.542;13.440;2023-07-30T00:31:32;19.60;99.90
2054;DHT22;1032;52.542;13.440;2023-07-30T00:33:59;19.70;99.90
2054;DHT22;1032;52.542;13.440;2023-07-30T00:36:25;19.60;99.90
2054;DHT22;1032;52.542;13.440;2023-07-30T00:38:52;19.50;99.90
2054;DHT22;1032;52.542;13.440;2023-07-30T00:41:19;19.30;99.90
2054;DHT22;1032;52.542;13.440;2023-07-30T00:43:46;19.50;99.90
2054;DHT22;1032;52.542;13.440;2023-07-30T00:46:14;19.50;99.90
2054;DHT22;1032;52.542;13.440;2023-07-30T00:48:43;19.50;99.90
2054;DHT22;1032;52.542;13.440;2023-07-30T00:51:11;19.50;99.90
2054;DHT22;1032;52.542;13.440;2023-07-30T00:53:39;19.40;99.90
2054;DHT22;1032;52.542;13.440;2023-07-30T00:56:06;19.40;99.90
2054;DHT22;1032;52.542;13.440;2023-07-30T00:58:33;19.40;99.90
2054;DHT22;1032;52.542;13.440;2023-07-30T01:01:00;19.40;99.90
2054;DHT22;1032;52.542;13.440;2023-07-30T01:03:26;19.40;99.90
2054;DHT22;1032;52.542;13.440;2023-07-30T01:05:55;19.00;99.90
2054;DHT22;1032;52.542;13.440;2023-07-30T01:08:22;19.30;99.90
2054;DHT22;1032;52.542;13.440;2023-07-30T01:10:50;19.30;99.90
2054;DHT22;1032;52.542;13.440;2023-07-30T01:13:17;19.30;99.90
2054;DHT22;1032;52.542;13.440;2023-07-30T01:15:44;19.30;99.90
2054;DHT22;1032;52.542;13.440;2023-07-30T01:18:11;19.30;99.90
2054;DHT22;1032;52.542;13.440;2023-07-30T01:20:38;19.30;99.90
2054;DHT22;1032;52.542;13.440;2023-07-30T01:23:06;19.20;99.90
2054;DHT22;1032;52.542;13.440;2023-07-30T01:25:35;19.20;99.90
2054;DHT22;1032;52.542;13.440;2023-07-30T01:28:04;19.20;99.90
2054;DHT22;1032;52.542;13.440;2023-07-30T01:30:35;19.20;99.90
2054;DHT22;1032;52.542;13.440;2023-07-30T01:33:05;19.20;99.90
2054;DHT22;1032;52.542;13.440;2023-07-30T01:35:32;19.10;99.90
2054;DHT22;1032;52.542;13.440;2023-07-30T01:38:00;19.40;99.90
2054;DHT22;1032;52.542;13.440;2023-07-30T01:40:30;19.00;99.90
2054;DHT22;1032;52.542;13.440;2023-07-30T01:42:57;19.10;99.90
2054;DHT22;1032;52.542;13.440;2023-07-30T01:45:24;19.10;99.90
2054;DHT22;1032;52.542;13.440;2023-07-30T01:47:51;19.00;99.90
2054;DHT22;1032;52.542;13.440;2023-07-30T01:50:17;19.00;99.90
2054;DHT22;1032;52.542;13.440;2023-07-30T01:52:44;18.80;99.90
2054;DHT22;1032;52.542;13.440;2023-07-30T01:55:10;19.00;99.90
2054;DHT22;1032;52.542;13.440;2023-07-30T01:57:38;19.00;99.90
2054;DHT22;1032;52.542;13.440;2023-07-30T02:00:06;19.00;99.90
2054;DHT22;1032;52.542;13.440;2023-07-30T02:02:33;19.00;99.90
2054;DHT22;1032;52.542;13.440;2023-07-30T02:05:01;19.00;99.90
2054;DHT22;1032;52.542;13.440;2023-07-30T02:07:27;19.00;99.90
2054;DHT22;1032;52.542;13.440;2023-07-30T02:09:54;18.70;99.90
2054;DHT22;1032;52.542;13.440;2023-07-30T02:12:21;18.90;99.90
2054;DHT22;1032;52.542;13.440;2023-07-30T02:14:49;18.60;99.90
2054;DHT22;1032;52.542;13.440;2023-07-30T02:17:15;19.00;99.90
2054;DHT22;1032;52.542;13.440;2023-07-30T02:19:42;18.90;99.90
2054;DHT22;1032;52.542;13.440;2023-07-30T02:22:08;18.90;99.90
2054;DHT22;1032;52.542;13.440;2023-07-30T02:24:35;18.70;99.90
2054;DHT22;1032;52.542;13.440;2023-07-30T02:27:02;18.80;99.90
2054;DHT22;1032;52.542;13.440;2023-07-30T02:29:28;18.60;99.90
2054;DHT22;1032;52.542;13.440;2023-07-30T02:31:57;18.70;99.90
2054;DHT22;1032;52.542;13.440;2023-07-30T02:34:25;18.70;99.90
2054;DHT22;1032;52.542;13.440;2023-07-30T02:36:52;18.60;99.90
2054;DHT22;1032;52.542;13.440;2023-07-30T02:39:18;18.70;99.90
2054;DHT22;1032;52.542;13.440;2023-07-30T02:41:45;18.70;99.90
2054;DHT22;1032;52.542;13.440;2023-07-30T02:44:12;18.40;99.90
2054;DHT22;1032;52.542;13.440;2023-07-30T02:46:39;18.80;99.90
2054;DHT22;1032;52.542;13.440;2023-07-30T02:49:07;18.60;99.90
2054;DHT22;1032;52.542;13.440;2023-07-30T02:51:34;18.60;99.90
2054;DHT22;1032;52.542;13.440;2023-07-30T02:54:04;18.60;99.90
2054;DHT22;1032;52.542;13.440;2023-07-30T02:56:31;18.60;99.90
2054;DHT22;1032;52.542;13.440;2023-07-30T02:58:58;18.60;99.90
2054;DHT22;1032;52.542;13.440;2023-07-30T03:01:25;18.50;99.90
2054;DHT22;1032;52.542;13.440;2023-07-30T03:03:52;18.60;99.90
2054;DHT22;1032;52.542;13.440;2023-07-30T03:06:20;18.50;99.90
2054;DHT22;1032;52.542;13.440;2023-07-30T03:08:46;18.60;99.90
2054;DHT22;1032;52.542;13.440;2023-07-30T03:11:13;18.70;99.90
2054;DHT22;1032;52.542;13.440;2023-07-30T03:13:40;18.70;99.90
2054;DHT22;1032;52.542;13.440;2023-07-30T03:16:06;18.70;99.90
2054;DHT22;1032;52.542;13.440;2023-07-30T03:18:33;18.30;99.90
2054;DHT22;1032;52.542;13.440;2023-07-30T03:20:59;18.60;99.90
2054;DHT22;1032;52.542;13.440;2023-07-30T03:23:28;18.80;99.90
2054;DHT22;1032;52.542;13.440;2023-07-30T03:25:54;18.40;99.90
2054;DHT22;1032;52.542;13.440;2023-07-30T03:28:21;18.50;99.90
2054;DHT22;1032;52.542;13.440;2023-07-30T03:30:47;18.60;99.90
2054;DHT22;1032;52.542;13.440;2023-07-30T03:33:14;18.50;99.90
2054;DHT22;1032;52.542;13.440;2023-07-30T03:35:41;18.50;99.90
2054;DHT22;1032;52.542;13.440;2023-07-30T03:38:08;18.60;99.90
2054;DHT22;1032;52.542;13.440;2023-07-30T03:40:35;18.50;99.90
2054;DHT22;1032;52.542;13.440;2023-07-30T03:43:03;18.70;99.90
2054;DHT22;1032;52.542;13.440;2023-07-30T03:45:29;18.60;99.90
2054;DHT22;1032;52.542;13.440;2023-07-30T03:47:56;18.50;99.90
2054;DHT22;1032;52.542;13.440;2023-07-30T03:50:23;18.50;99.90
2054;DHT22;1032;52.542;13.440;2023-07-30T03:52:49;18.50;99.90
2054;DHT22;1032;52.542;13.440;2023-07-30T03:55:16;19.00;99.90
2054;DHT22;1032;52.542;13.440;2023-07-30T03:57:44;19.00;99.90
2054;DHT22;1032;52.542;13.440;2023-07-30T04:00:12;18.60;99.90
2054;DHT22;1032;52.542;13.440;2023-07-30T04:02:41;19.10;99.90
2054;DHT22;1032;52.542;13.440;2023-07-30T04:05:08;19.20;99.90
2054;DHT22;1032;52.542;13.440;2023-07-30T04:07:34;18.70;99.90
2054;DHT22;1032;52.542;13.440;2023-07-30T04:10:01;19.10;99.90
2054;DHT22;1032;52.542;13.440;2023-07-30T04:12:28;18.80;99.90
2054;DHT22;1032;52.542;13.440;2023-07-30T04:14:56;18.80;99.90
2054;DHT22;1032;52.542;13.440;2023-07-30T04:17:22;19.30;99.90
2054;DHT22;1032;52.542;13.440;2023-07-30T04:19:49;19.00;99.90
2054;DHT22;1032;52.542;13.440;2023-07-30T04:22:16;19.10;99.90
2054;DHT22;1032;52.542;13.440;2023-07-30T04:24:42;18.90;99.90
2054;DHT22;1032;52.542;13.440;2023-07-30T04:27:09;19.30;99.90
2054;DHT22;1032;52.542;13.440;2023-07-30T04:29:35;19.40;99.90
2054;DHT22;1032;52.542;13.440;2023-07-30T04:32:04;19.50;99.90
2054;DHT22;1032;52.542;13.440;2023-07-30T04:34:31;19.60;99.90
2054;DHT22;1032;52.542;13.440;2023-07-30T04:36:57;19.60;99.90
2054;DHT22;1032;52.542;13.440;2023-07-30T04:39:25;19.60;99.90
2054;DHT22;1032;52.542;13.440;2023-07-30T04:41:51;19.60;99.90
2054;DHT22;1032;52.542;13.440;2023-07-30T04:44:18;19.60;99.90
2054;DHT22;1032;52.542;13.440;2023-07-30T04:46:45;19.60;99.90
2054;DHT22;1032;52.542;13.440;2023-07-30T04:49:13;19.60;99.90
2054;DHT22;1032;52.542;13.440;2023-07-30T04:51:40;19.70;99.90
2054;DHT22;1032;52.542;13.440;2023-07-30T04:54:07;19.70;99.90
2054;DHT22;1032;52.542;13.440;2023-07-30T04:56:34;19.70;99.90
2054;DHT22;1032;52.542;13.440;2023-07-30T04:59:01;19.90;99.90
2054;DHT22;1032;52.542;13.440;2023-07-30T05:01:27;19.90;99.90
2054;DHT22;1032;52.542;13.440;2023-07-30T05:03:54;20.00;99.90
2054;DHT22;1032;52.542;13.440;2023-07-30T05:06:22;20.10;99.90
2054;DHT22;1032;52.542;13.440;2023-07-30T05:08:49;20.30;99.90
2054;DHT22;1032;52.542;13.440;2023-07-30T05:11:16;20.30;99.90
2054;DHT22;1032;52.542;13.440;2023-07-30T05:13:42;20.40;99.90
2054;DHT22;1032;52.542;13.440;2023-07-30T05:16:09;20.30;99.90
2054;DHT22;1032;52.542;13.440;2023-07-30T05:18:36;20.50;99.90
2054;DHT22;1032;52.542;13.440;2023-07-30T05:21:02;20.60;99.90
2054;DHT22;1032;52.542;13.440;2023-07-30T05:23:30;20.70;99.90
2054;DHT22;1032;52.542;13.440;2023-07-30T05:25:57;20.80;99.90
2054;DHT22;1032;52.542;13.440;2023-07-30T05:28:23;20.50;99.90
2054;DHT22;1032;52.542;13.440;2023-07-30T05:30:50;20.80;99.90
2054;DHT22;1032;52.542;13.440;2023-07-30T05:33:17;20.90;99.90
2054;DHT22;1032;52.542;13.440;2023-07-30T05:35:43;21.20;99.90
2054;DHT22;1032;52.542;13.440;2023-07-30T05:38:11;21.10;99.90
2054;DHT22;1032;52.542;13.440;2023-07-30T05:40:39;21.60;99.90
2054;DHT22;1032;52.542;13.440;2023-07-30T05:43:05;21.80;99.90
2054;DHT22;1032;52.542;13.440;2023-07-30T05:45:33;21.80;99.90
2054;DHT22;1032;52.542;13.440;2023-07-30T05:48:00;21.70;99.90
2054;DHT22;1032;52.542;13.440;2023-07-30T05:50:27;21.80;99.90
2054;DHT22;1032;52.542;13.440;2023-07-30T05:52:53;21.30;99.90
2054;DHT22;1032;52.542;13.440;2023-07-30T05:55:20;21.20;99.90
2054;DHT22;1032;52.542;13.440;2023-07-30T05:57:48;21.30;99.90
2054;DHT22;1032;52.542;13.440;2023-07-30T06:00:14;21.70;99.90
2054;DHT22;1032;52.542;13.440;2023-07-30T06:02:41;21.60;99.90
2054;DHT22;1032;52.542;13.440;2023-07-30T06:05:08;21.60;99.90
2054;DHT22;1032;52.542;13.440;2023-07-30T06:07:35;21.70;99.90
2054;DHT22;1032;52.542;13.440;2023-07-30T06:10:01;21.60;99.90
2054;DHT22;1032;52.542;13.440;2023-07-30T06:12:28;22.20;99.90
2054;DHT22;1032;52.542;13.440;2023-07-30T06:14:56;22.00;99.90
2054;DHT22;1032;52.542;13.440;2023-07-30T06:17:23;22.10;99.90
2054;DHT22;1032;52.542;13.440;2023-07-30T06:19:49;22.20;99.90
2054;DHT22;1032;52.542;13.440;2023-07-30T06:22:16;22.30;99.90
2054;DHT22;1032;52.542;13.440;2023-07-30T06:24:44;22.30;99.90
2054;DHT22;1032;52.542;13.440;2023-07-30T06:27:10;22.40;99.90
2054;DHT22;1032;52.542;13.440;2023-07-30T06:29:37;22.50;99.90
2054;DHT22;1032;52.542;13.440;2023-07-30T06:32:06;22.60;99.90
2054;DHT22;1032;52.542;13.440;2023-07-30T06:34:33;22.80;99.90
2054;DHT22;1032;52.542;13.440;2023-07-30T06:37:00;22.50;99.90
2054;DHT22;1032;52.542;13.440;2023-07-30T06:39:26;22.80;99.90
2054;DHT22;1032;52.542;13.440;2023-07-30T06:41:53;22.70;99.90
2054;DHT22;1032;52.542;13.440;2023-07-30T06:44:19;23.00;99.90
2054;DHT22;1032;52.542;13.440;2023-07-30T06:46:46;23.00;99.90
2054;DHT22;1032;52.542;13.440;2023-07-30T06:49:14;23.00;99.90
2054;DHT22;1032;52.542;13.440;2023-07-30T06:51:40;23.10;99.90
2054;DHT22;1032;52.542;13.440;2023-07-30T06:54:07;23.20;99.90
2054;DHT22;1032;52.542;13.440;2023-07-30T06:56:34;22.70;99.90
2054;DHT22;1032;52.542;13.440;2023-07-30T06:59:02;23.10;99.90
2054;DHT22;1032;52.542;13.440;2023-07-30T07:01:28;23.20;99.90
2054;DHT22;1032;52.542;13.440;2023-07-30T07:03:55;23.20;99.90
2054;DHT22;1032;52.542;13.440;2023-07-30T07:06:23;22.70;99.90
2054;DHT22;1032;52.542;13.440;2023-07-30T07:08:50;23.10;99.90
2054;DHT22;1032;52.542;13.440;2023-07-30T07:11:16;23.10;99.90
2054;DHT22;1032;52.542;13.440;2023-07-30T07:13:43;23.10;99.90
2054;DHT22;1032;52.542;13.440;2023-07-30T07:16:10;23.00;99.90
2054;DHT22;1032;52.542;13.440;2023-07-30T07:18:36;23.00;99.90
2054;DHT22;1032;52.542;13.440;2023-07-30T07:21:03;22.70;99.90
2054;DHT22;1032;52.542;13.440;2023-07-30T07:23:31;23.00;99.90
2054;DHT22;1032;52.542;13.440;2023-07-30T07:25:57;23.00;99.90
2054;DHT22;1032;52.542;13.440;2023-07-30T07:28:24;23.00;99.90
2054;DHT22;1032;52.542;13.440;2023-07-30T07:30:51;23.10;99.90
2054;DHT22;1032;52.542;13.440;2023-07-30T07:33:18;23.10;99.90
2054;DHT22;1032;52.542;13.440;2023-07-30T07:35:44;23.10;99.90
2054;DHT22;1032;52.542;13.440;2023-07-30T07:38:11;23.10;99.90
2054;DHT22;1032;52.542;13.440;2023-07-30T07:40:39;23.00;99.90
2054;DHT22;1032;52.542;13.440;2023-07-30T07:43:06;23.90;99.90
2054;DHT22;1032;52.542;13.440;2023-07-30T07:45:32;23.40;99.90
2054;DHT22;1032;52.542;13.440;2023-07-30T07:47:59;23.50;99.90
2054;DHT22;1032;52.542;13.440;2023-07-30T07:50:26;23.60;99.90
2054;DHT22;1032;52.542;13.440;2023-07-30T07:52:52;23.70;99.90
2054;DHT22;1032;52.542;13.440;2023-07-30T07:55:19;23.40;99.90
2054;DHT22;1032;52.542;13.440;2023-07-30T07:57:47;23.80;99.90
2054;DHT22;1032;52.542;13.440;2023-07-30T08:00:14;23.80;99.90
2054;DHT22;1032;52.542;13.440;2023-07-30T08:02:40;23.80;99.90
2054;DHT22;1032;52.542;13.440;2023-07-30T08:05:08;23.80;99.90
2054;DHT22;1032;52.542;13.440;2023-07-30T08:07:34;23.90;99.90
2054;DHT22;1032;52.542;13.440;2023-07-30T08:10:01;23.70;99.90
2054;DHT22;1032;52.542;13.440;2023-07-30T08:12:27;23.90;99.90
2054;DHT22;1032;52.542;13.440;2023-07-30T08:14:55;23.40;99.90
2054;DHT22;1032;52.542;13.440;2023-07-30T08:17:24;23.90;99.90
2054;DHT22;1032;52.542;13.440;2023-07-30T08:19:50;24.10;99.90
2054;DHT22;1032;52.542;13.440;2023-07-30T08:22:17;24.30;99.90
2054;DHT22;1032;52.542;13.440;2023-07-30T08:24:44;24.10;99.90
2054;DHT22;1032;52.542;13.440;2023-07-30T08:27:10;24.40;99.90
2054;DHT22;1032;52.542;13.440;2023-07-30T08:29:37;24.50;99.90
2054;DHT22;1032;52.542;13.440;2023-07-30T08:32:05;24.30;99.90
2054;DHT22;1032;52.542;13.440;2023-07-30T08:34:32;24.70;99.90
2054;DHT22;1032;52.542;13.440;2023-07-30T08:36:59;24.80;99.90
2054;DHT22;1032;52.542;13.440;2023-07-30T08:39:25;24.40;99.90
2054;DHT22;1032;52.542;13.440;2023-07-30T08:41:52;24.70;99.90
2054;DHT22;1032;52.542;13.440;2023-07-30T08:44:19;24.80;99.90
2054;DHT22;1032;52.542;13.440;2023-07-30T08:46:45;24.50;99.90
2054;DHT22;1032;52.542;13.440;2023-07-30T08:49:13;24.80;99.90
2054;DHT22;1032;52.542;13.440;2023-07-30T08:51:40;24.80;99.90
2054;DHT22;1032;52.542;13.440;2023-07-30T08:54:09;24.70;99.90
2054;DHT22;1032;52.542;13.440;2023-07-30T08:56:36;24.30;99.80
2054;DHT22;1032;52.542;13.440;2023-07-30T08:59:03;24.40;99.80
2054;DHT22;1032;52.542;13.440;2023-07-30T09:01:38;24.30;99.80
2054;DHT22;1032;52.542;13.440;2023-07-30T09:04:06;24.30;99.80
2054;DHT22;1032;52.542;13.440;2023-07-30T09:06:35;24.30;99.90
2054;DHT22;1032;52.542;13.440;2023-07-30T09:09:04;24.30;99.80
2054;DHT22;1032;52.542;13.440;2023-07-30T09:11:31;24.40;99.50
2054;DHT22;1032;52.542;13.440;2023-07-30T09:14:00;24.20;98.90
2054;DHT22;1032;52.542;13.440;2023-07-30T09:16:28;24.10;98.30
2054;DHT22;1032;52.542;13.440;2023-07-30T09:18:54;24.50;98.30
2054;DHT22;1032;52.542;13.440;2023-07-30T09:21:29;24.60;98.00
2054;DHT22;1032;52.542;13.440;2023-07-30T09:23:57;24.80;97.60
2054;DHT22;1032;52.542;13.440;2023-07-30T09:26:29;24.90;97.20
2054;DHT22;1032;52.542;13.440;2023-07-30T09:28:55;24.90;97.00
2054;DHT22;1032;52.542;13.440;2023-07-30T09:31:22;25.00;96.70
2054;DHT22;1032;52.542;13.440;2023-07-30T09:33:49;25.00;96.60
2054;DHT22;1032;52.542;13.440;2023-07-30T09:36:18;25.10;96.50
2054;DHT22;1032;52.542;13.440;2023-07-30T09:38:45;24.90;96.30
2054;DHT22;1032;52.542;13.440;2023-07-30T09:41:13;25.00;96.20
2054;DHT22;1032;52.542;13.440;2023-07-30T09:43:40;24.90;96.40
2054;DHT22;1032;52.542;13.440;2023-07-30T09:46:07;24.80;96.30
2054;DHT22;1032;52.542;13.440;2023-07-30T09:48:34;24.70;96.10
2054;DHT22;1032;52.542;13.440;2023-07-30T09:51:02;24.60;95.90
2054;DHT22;1032;52.542;13.440;2023-07-30T09:53:30;24.50;95.90
2054;DHT22;1032;52.542;13.440;2023-07-30T09:56:00;24.50;95.80
2054;DHT22;1032;52.542;13.440;2023-07-30T09:58:28;24.50;95.60
2054;DHT22;1032;52.542;13.440;2023-07-30T10:00:55;24.50;94.80
2054;DHT22;1032;52.542;13.440;2023-07-30T10:03:24;24.40;95.30
2054;DHT22;1032;52.542;13.440;2023-07-30T10:05:52;24.50;95.40
2054;DHT22;1032;52.542;13.440;2023-07-30T10:08:24;24.40;95.40
2054;DHT22;1032;52.542;13.440;2023-07-30T10:10:51;24.70;95.50
2054;DHT22;1032;52.542;13.440;2023-07-30T10:13:20;24.70;95.40
2054;DHT22;1032;52.542;13.440;2023-07-30T10:15:48;25.00;95.50
2054;DHT22;1032;52.542;13.440;2023-07-30T10:18:15;25.10;95.40
2054;DHT22;1032;52.542;13.440;2023-07-30T10:20:49;24.90;95.20
2054;DHT22;1032;52.542;13.440;2023-07-30T10:23:18;25.20;95.10
2054;DHT22;1032;52.542;13.440;2023-07-30T10:25:46;25.30;94.60
2054;DHT22;1032;52.542;13.440;2023-07-30T10:28:32;25.30;94.20
2054;DHT22;1032;52.542;13.440;2023-07-30T10:31:02;25.10;93.30
2054;DHT22;1032;52.542;13.440;2023-07-30T10:33:46;25.40;93.40
2054;DHT22;1032;52.542;13.440;2023-07-30T10:36:13;25.20;92.80
2054;DHT22;1032;52.542;13.440;2023-07-30T10:38:40;25.50;92.90
2054;DHT22;1032;52.542;13.440;2023-07-30T10:41:09;25.50;92.70
2054;DHT22;1032;52.542;13.440;2023-07-30T10:43:39;25.60;92.30
2054;DHT22;1032;52.542;13.440;2023-07-30T10:46:08;25.60;91.60
2054;DHT22;1032;52.542;13.440;2023-07-30T10:48:36;25.30;90.80
2054;DHT22;1032;52.542;13.440;2023-07-30T10:51:05;25.80;90.70
2054;DHT22;1032;52.542;13.440;2023-07-30T10:53:32;25.80;90.80
2054;DHT22;1032;52.542;13.440;2023-07-30T10:56:01;25.70;90.70
2054;DHT22;1032;52.542;13.440;2023-07-30T10:58:29;25.90;90.60
2054;DHT22;1032;52.542;13.440;2023-07-30T11:00:56;26.00;90.70
2054;DHT22;1032;52.542;13.440;2023-07-30T11:03:26;26.10;90.90
2054;DHT22;1032;52.542;13.440;2023-07-30T11:05:53;26.20;90.10
2054;DHT22;1032;52.542;13.440;2023-07-30T11:08:21;26.30;89.50
2054;DHT22;1032;52.542;13.440;2023-07-30T11:10:58;26.40;89.00
2054;DHT22;1032;52.542;13.440;2023-07-30T11:13:24;26.50;88.10
2054;DHT22;1032;52.542;13.440;2023-07-30T11:15:51;26.60;86.60
2054;DHT22;1032;52.542;13.440;2023-07-30T11:18:18;26.60;85.30
2054;DHT22;1032;52.542;13.440;2023-07-30T11:20:46;26.20;84.40
2054;DHT22;1032;52.542;13.440;2023-07-30T11:23:20;26.60;84.40
2054;DHT22;1032;52.542;13.440;2023-07-30T11:25:48;26.60;83.90
2054;DHT22;1032;52.542;13.440;2023-07-30T11:28:26;26.60;83.10
2054;DHT22;1032;52.542;13.440;2023-07-30T11:30:53;26.40;81.70
2054;DHT22;1032;52.542;13.440;2023-07-30T11:33:20;26.70;81.10
2054;DHT22;1032;52.542;13.440;2023-07-30T11:35:48;26.60;80.10
2054;DHT22;1032;52.542;13.440;2023-07-30T11:38:15;26.70;80.60
2054;DHT22;1032;52.542;13.440;2023-07-30T11:40:43;26.70;79.90
2054;DHT22;1032;52.542;13.440;2023-07-30T11:43:10;26.60;78.80
2054;DHT22;1032;52.542;13.440;2023-07-30T11:45:36;26.50;78.00
2054;DHT22;1032;52.542;13.440;2023-07-30T11:48:07;26.50;77.40
2054;DHT22;1032;52.542;13.440;2023-07-30T11:50:45;26.50;76.50
2054;DHT22;1032;52.542;13.440;2023-07-30T11:53:13;26.10;75.20
2054;DHT22;1032;52.542;13.440;2023-07-30T11:55:41;26.40;75.10
2054;DHT22;1032;52.542;13.440;2023-07-30T11:58:09;26.20;74.40
2054;DHT22;1032;52.542;13.440;2023-07-30T12:00:36;26.40;75.20
2054;DHT22;1032;52.542;13.440;2023-07-30T12:03:05;26.50;75.70
2054;DHT22;1032;52.542;13.440;2023-07-30T12:05:33;26.10;75.50
2054;DHT22;1032;52.542;13.440;2023-07-30T12:08:00;26.40;75.10
2054;DHT22;1032;52.542;13.440;2023-07-30T12:10:40;26.00;74.90
2054;DHT22;1032;52.542;13.440;2023-07-30T12:13:11;26.30;74.80
2054;DHT22;1032;52.542;13.440;2023-07-30T12:15:38;26.30;75.20
2054;DHT22;1032;52.542;13.440;2023-07-30T12:18:04;26.30;76.10
2054;DHT22;1032;52.542;13.440;2023-07-30T12:20:31;26.30;74.50
2054;DHT22;1032;52.542;13.440;2023-07-30T12:22:57;25.90;73.80
2054;DHT22;1032;52.542;13.440;2023-07-30T12:25:24;26.30;74.30
2054;DHT22;1032;52.542;13.440;2023-07-30T12:27:52;26.40;74.70
2054;DHT22;1032;52.542;13.440;2023-07-30T12:30:19;26.40;73.80
2054;DHT22;1032;52.542;13.440;2023-07-30T12:32:45;26.50;73.90
2054;DHT22;1032;52.542;13.440;2023-07-30T12:35:12;26.30;73.10
2054;DHT22;1032;52.542;13.440;2023-07-30T12:37:39;26.70;72.70
2054;DHT22;1032;52.542;13.440;2023-07-30T12:40:07;26.70;71.80
2054;DHT22;1032;52.542;13.440;2023-07-30T12:42:34;26.90;71.80
2054;DHT22;1032;52.542;13.440;2023-07-30T12:45:02;27.00;71.60
2054;DHT22;1032;52.542;13.440;2023-07-30T12:47:28;27.00;71.80
2054;DHT22;1032;52.542;13.440;2023-07-30T12:49:55;27.00;71.90
2054;DHT22;1032;52.542;13.440;2023-07-30T12:52:22;27.10;72.40
2054;DHT22;1032;52.542;13.440;2023-07-30T12:54:48;27.20;74.00
2054;DHT22;1032;52.542;13.440;2023-07-30T12:57:15;27.20;73.20
2054;DHT22;1032;52.542;13.440;2023-07-30T12:59:42;27.20;72.50
2054;DHT22;1032;52.542;13.440;2023-07-30T13:02:10;27.30;72.00
2054;DHT22;1032;52.542;13.440;2023-07-30T13:04:36;27.40;71.10
2054;DHT22;1032;52.542;13.440;2023-07-30T13:07:03;27.40;71.20
2054;DHT22;1032;52.542;13.440;2023-07-30T13:09:30;27.50;71.50
2054;DHT22;1032;52.542;13.440;2023-07-30T13:11:57;27.50;71.70
2054;DHT22;1032;52.542;13.440;2023-07-30T13:14:24;27.60;71.90
2054;DHT22;1032;52.542;13.440;2023-07-30T13:16:51;28.10;71.70
2054;DHT22;1032;52.542;13.440;2023-07-30T13:19:19;27.20;71.10
2054;DHT22;1032;52.542;13.440;2023-07-30T13:21:45;27.30;70.90
2054;DHT22;1032;52.542;13.440;2023-07-30T13:24:12;27.50;70.80
2054;DHT22;1032;52.542;13.440;2023-07-30T13:26:38;27.50;70.70
2054;DHT22;1032;52.542;13.440;2023-07-30T13:29:05;27.60;70.80
2054;DHT22;1032;52.542;13.440;2023-07-30T13:31:32;27.30;69.10
2054;DHT22;1032;52.542;13.440;2023-07-30T13:33:58;27.60;68.00
2054;DHT22;1032;52.542;13.440;2023-07-30T13:36:26;27.70;67.50
2054;DHT22;1032;52.542;13.440;2023-07-30T13:38:53;27.80;66.60
2054;DHT22;1032;52.542;13.440;2023-07-30T13:41:19;27.80;66.10
2054;DHT22;1032;52.542;13.440;2023-07-30T13:43:46;27.80;66.20
2054;DHT22;1032;52.542;13.440;2023-07-30T13:46:13;27.70;64.60
2054;DHT22;1032;52.542;13.440;2023-07-30T13:48:39;27.70;63.60
2054;DHT22;1032;52.542;13.440;2023-07-30T13:51:06;27.70;63.50
2054;DHT22;1032;52.542;13.440;2023-07-30T13:53:34;27.70;63.30
2054;DHT22;1032;52.542;13.440;2023-07-30T13:56:06;27.50;63.10
2054;DHT22;1032;52.542;13.440;2023-07-30T13:58:33;27.60;62.00
2054;DHT22;1032;52.542;13.440;2023-07-30T14:00:59;27.40;61.20
2054;DHT22;1032;52.542;13.440;2023-07-30T14:03:26;27.50;61.00
2054;DHT22;1032;52.542;13.440;2023-07-30T14:05:53;27.60;60.60
2054;DHT22;1032;52.542;13.440;2023-07-30T14:08:19;27.20;60.50
2054;DHT22;1032;52.542;13.440;2023-07-30T14:10:47;27.40;60.90
2054;DHT22;1032;52.542;13.440;2023-07-30T14:13:14;27.30;61.00
2054;DHT22;1032;52.542;13.440;2023-07-30T14:15:40;27.30;61.40
2054;DHT22;1032;52.542;13.440;2023-07-30T14:18:07;27.30;61.80
2054;DHT22;1032;52.542;13.440;2023-07-30T14:20:34;27.30;62.20
2054;DHT22;1032;52.542;13.440;2023-07-30T14:23:03;26.80;62.30
2054;DHT22;1032;52.542;13.440;2023-07-30T14:25:29;27.10;62.90
2054;DHT22;1032;52.542;13.440;2023-07-30T14:27:59;26.90;63.30
2054;DHT22;1032;52.542;13.440;2023-07-30T14:30:25;26.90;64.10
2054;DHT22;1032;52.542;13.440;2023-07-30T14:32:52;26.90;65.30
2054;DHT22;1032;52.542;13.440;2023-07-30T14:35:19;26.80;65.40
2054;DHT22;1032;52.542;13.440;2023-07-30T14:37:46;26.70;65.10
2054;DHT22;1032;52.542;13.440;2023-07-30T14:40:12;26.60;65.60
2054;DHT22;1032;52.542;13.440;2023-07-30T14:42:40;26.60;66.00
2054;DHT22;1032;52.542;13.440;2023-07-30T14:45:09;26.50;66.20
2054;DHT22;1032;52.542;13.440;2023-07-30T14:47:36;26.40;67.40
2054;DHT22;1032;52.542;13.440;2023-07-30T14:50:04;26.20;67.90
2054;DHT22;1032;52.542;13.440;2023-07-30T14:52:31;26.20;68.10
2054;DHT22;1032;52.542;13.440;2023-07-30T14:54:57;25.70;68.10
2054;DHT22;1032;52.542;13.440;2023-07-30T14:57:24;25.90;68.50
2054;DHT22;1032;52.542;13.440;2023-07-30T14:59:51;25.70;69.20
2054;DHT22;1032;52.542;13.440;2023-07-30T15:02:19;25.90;69.20
2054;DHT22;1032;52.542;13.440;2023-07-30T15:04:46;25.80;69.60
2054;DHT22;1032;52.542;13.440;2023-07-30T15:07:12;25.80;71.30
2054;DHT22;1032;52.542;13.440;2023-07-30T15:09:39;25.30;74.40
2054;DHT22;1032;52.542;13.440;2023-07-30T15:12:06;25.40;77.20
2054;DHT22;1032;52.542;13.440;2023-07-30T15:14:33;25.30;79.00
2054;DHT22;1032;52.542;13.440;2023-07-30T15:16:59;25.10;80.60
2054;DHT22;1032;52.542;13.440;2023-07-30T15:19:27;25.00;81.80
2054;DHT22;1032;52.542;13.440;2023-07-30T15:21:54;24.70;82.80
2054;DHT22;1032;52.542;13.440;2023-07-30T15:24:20;24.40;83.10
2054;DHT22;1032;52.542;13.440;2023-07-30T15:26:47;24.90;83.80
2054;DHT22;1032;52.542;13.440;2023-07-30T15:29:14;25.00;84.50
2054;DHT22;1032;52.542;13.440;2023-07-30T15:31:40;25.00;84.60
2054;DHT22;1032;52.542;13.440;2023-07-30T15:34:07;25.10;85.00
2054;DHT22;1032;52.542;13.440;2023-07-30T15:36:35;24.80;85.10
2054;DHT22;1032;52.542;13.440;2023-07-30T15:39:02;25.10;85.70
2054;DHT22;1032;52.542;13.440;2023-07-30T15:41:28;25.10;85.80
2054;DHT22;1032;52.542;13.440;2023-07-30T15:43:55;25.10;86.00
2054;DHT22;1032;52.542;13.440;2023-07-30T15:46:22;25.00;86.20